sensor_id;sensor_type;location;lat;lon;timestamp;P1;durP1;ratioP1;P2;durP2;ratioP2
26977;SDS011;56314;48.088;11.642;2024-01-15T00:00:07;7.93;;;4.15;;
26977;SDS011;56314;48.088;11.642;2024-01-15T00:02:33;10.63;;;4.18;;
26977;SDS011;56314;48.088;11.642;2024-01-15T00:04:59;7.78;;;4.07;;
26977;SDS011;56314;48.088;11.642;2024-01-15T00:07:24;5.57;;;3.58;;
26977;SDS011;56314;48.088;11.642;2024-01-15T00:09:49;10.40;;;4.57;;
26977;SDS011;56314;48.088;11.642;2024-01-15T00:12:15;10.90;;;4.00;;
26977;SDS011;56314;48.088;11.642;2024-01-15T00:14:40;7.75;;;4.40;;
26977;SDS011;56314;48.088;11.642;2024-01-15T00:17:05;8.80;;;4.10;;
26977;SDS011;56314;48.088;11.642;2024-01-15T00:19:31;7.50;;;3.90;;
26977;SDS011;56314;48.088;11.642;2024-01-15T00:21:57;9.48;;;4.57;;
26977;SDS011;56314;48.088;11.642;2024-01-15T00:24:22;8.68;;;3.53;;
26977;SDS011;56314;48.088;11.642;2024-01-15T00:26:48;9.90;;;4.70;;
26977;SDS011;56314;48.088;11.642;2024-01-15T00:29:13;8.20;;;4.57;;
26977;SDS011;56314;48.088;11.642;2024-01-15T00:31:38;10.35;;;4.80;;
26977;SDS011;56314;48.088;11.642;2024-01-15T00:34:04;12.35;;;5.53;;
26977;SDS011;56314;48.088;11.642;2024-01-15T00:36:29;11.55;;;4.63;;
26977;SDS011;56314;48.088;11.642;2024-01-15T00:38:55;10.57;;;4.63;;
26977;SDS011;56314;48.088;11.642;2024-01-15T00:41:20;7.82;;;4.80;;
26977;SDS011;56314;48.088;11.642;2024-01-15T00:43:46;10.27;;;5.25;;
26977;SDS011;56314;48.088;11.642;2024-01-15T00:46:11;10.38;;;4.85;;
26977;SDS011;56314;48.088;11.642;2024-01-15T00:48:37;12.73;;;5.82;;
26977;SDS011;56314;48.088;11.642;2024-01-15T00:51:03;11.40;;;5.43;;
26977;SDS011;56314;48.088;11.642;2024-01-15T00:53:29;10.15;;;5.10;;
26977;SDS011;56314;48.088;11.642;2024-01-15T00:55:55;11.27;;;5.38;;
26977;SDS011;56314;48.088;11.642;2024-01-15T00:58:20;10.23;;;5.03;;
26977;SDS011;56314;48.088;11.642;2024-01-15T01:00:46;10.85;;;5.95;;
26977;SDS011;56314;48.088;11.642;2024-01-15T01:03:11;13.18;;;6.75;;
26977;SDS011;56314;48.088;11.642;2024-01-15T01:05:36;17.65;;;6.82;;
26977;SDS011;56314;48.088;11.642;2024-01-15T01:08:02;13.07;;;6.38;;
26977;SDS011;56314;48.088;11.642;2024-01-15T01:10:28;10.73;;;6.00;;
26977;SDS011;56314;48.088;11.642;2024-01-15T01:12:53;12.85;;;6.22;;
26977;SDS011;56314;48.088;11.642;2024-01-15T01:15:19;13.02;;;5.85;;
26977;SDS011;56314;48.088;11.642;2024-01-15T01:17:45;13.20;;;6.03;;
26977;SDS011;56314;48.088;11.642;2024-01-15T01:20:11;14.00;;;7.30;;
26977;SDS011;56314;48.088;11.642;2024-01-15T01:22:36;12.02;;;6.28;;
26977;SDS011;56314;48.088;11.642;2024-01-15T01:25:02;14.48;;;6.43;;
26977;SDS011;56314;48.088;11.642;2024-01-15T01:27:28;16.30;;;7.15;;
26977;SDS011;56314;48.088;11.642;2024-01-15T01:29:53;14.88;;;6.75;;
26977;SDS011;56314;48.088;11.642;2024-01-15T01:32:19;11.85;;;6.50;;
26977;SDS011;56314;48.088;11.642;2024-01-15T01:34:44;14.65;;;7.45;;
26977;SDS011;56314;48.088;11.642;2024-01-15T01:37:10;16.58;;;7.70;;
26977;SDS011;56314;48.088;11.642;2024-01-15T01:39:38;21.25;;;8.70;;
26977;SDS011;56314;48.088;11.642;2024-01-15T01:42:04;17.63;;;8.65;;
26977;SDS011;56314;48.088;11.642;2024-01-15T01:44:29;19.13;;;9.18;;
26977;SDS011;56314;48.088;11.642;2024-01-15T01:46:54;16.33;;;8.30;;
26977;SDS011;56314;48.088;11.642;2024-01-15T01:49:22;16.05;;;7.32;;
26977;SDS011;56314;48.088;11.642;2024-01-15T01:51:48;18.58;;;8.13;;
26977;SDS011;56314;48.088;11.642;2024-01-15T01:54:14;15.27;;;8.30;;
26977;SDS011;56314;48.088;11.642;2024-01-15T01:56:40;16.70;;;8.27;;
26977;SDS011;56314;48.088;11.642;2024-01-15T01:59:07;18.55;;;8.00;;
26977;SDS011;56314;48.088;11.642;2024-01-15T02:01:36;19.05;;;8.05;;
26977;SDS011;56314;48.088;11.642;2024-01-15T02:04:01;15.75;;;7.88;;
26977;SDS011;56314;48.088;11.642;2024-01-15T02:06:28;15.52;;;7.82;;
26977;SDS011;56314;48.088;11.642;2024-01-15T02:08:53;19.83;;;8.65;;
26977;SDS011;56314;48.088;11.642;2024-01-15T02:11:19;14.85;;;7.30;;
26977;SDS011;56314;48.088;11.642;2024-01-15T02:13:45;19.77;;;8.95;;
26977;SDS011;56314;48.088;11.642;2024-01-15T02:16:10;17.48;;;7.78;;
26977;SDS011;56314;48.088;11.642;2024-01-15T02:18:42;14.43;;;6.93;;
26977;SDS011;56314;48.088;11.642;2024-01-15T02:21:08;15.68;;;7.78;;
26977;SDS011;56314;48.088;11.642;2024-01-15T02:23:34;20.92;;;8.55;;
26977;SDS011;56314;48.088;11.642;2024-01-15T02:25:59;16.95;;;7.60;;
26977;SDS011;56314;48.088;11.642;2024-01-15T02:28:26;14.57;;;7.43;;
26977;SDS011;56314;48.088;11.642;2024-01-15T02:30:51;19.70;;;8.18;;
26977;SDS011;56314;48.088;11.642;2024-01-15T02:33:16;15.40;;;7.10;;
26977;SDS011;56314;48.088;11.642;2024-01-15T02:35:42;16.98;;;7.63;;
26977;SDS011;56314;48.088;11.642;2024-01-15T02:38:07;15.30;;;7.25;;
26977;SDS011;56314;48.088;11.642;2024-01-15T02:40:33;16.80;;;8.68;;
26977;SDS011;56314;48.088;11.642;2024-01-15T02:42:59;21.77;;;8.43;;
26977;SDS011;56314;48.088;11.642;2024-01-15T02:45:24;18.08;;;7.97;;
26977;SDS011;56314;48.088;11.642;2024-01-15T02:47:50;18.20;;;8.18;;
26977;SDS011;56314;48.088;11.642;2024-01-15T02:50:15;18.17;;;7.72;;
26977;SDS011;56314;48.088;11.642;2024-01-15T02:52:41;17.55;;;7.05;;
26977;SDS011;56314;48.088;11.642;2024-01-15T02:55:07;16.63;;;7.90;;
26977;SDS011;56314;48.088;11.642;2024-01-15T02:57:33;18.80;;;7.22;;
26977;SDS011;56314;48.088;11.642;2024-01-15T02:59:58;16.50;;;8.23;;
26977;SDS011;56314;48.088;11.642;2024-01-15T03:02:24;14.35;;;7.10;;
26977;SDS011;56314;48.088;11.642;2024-01-15T03:04:49;18.50;;;7.53;;
26977;SDS011;56314;48.088;11.642;2024-01-15T03:07:14;18.52;;;7.22;;
26977;SDS011;56314;48.088;11.642;2024-01-15T03:09:40;17.92;;;7.25;;
26977;SDS011;56314;48.088;11.642;2024-01-15T03:12:06;15.70;;;7.82;;
26977;SDS011;56314;48.088;11.642;2024-01-15T03:14:31;16.48;;;6.82;;
26977;SDS011;56314;48.088;11.642;2024-01-15T03:16:57;15.20;;;7.20;;
26977;SDS011;56314;48.088;11.642;2024-01-15T03:19:22;17.60;;;6.43;;
26977;SDS011;56314;48.088;11.642;2024-01-15T03:21:47;19.73;;;6.53;;
26977;SDS011;56314;48.088;11.642;2024-01-15T03:24:13;15.13;;;6.63;;
26977;SDS011;56314;48.088;11.642;2024-01-15T03:26:39;13.32;;;6.15;;
26977;SDS011;56314;48.088;11.642;2024-01-15T03:29:04;16.58;;;5.88;;
26977;SDS011;56314;48.088;11.642;2024-01-15T03:31:30;13.90;;;6.32;;
26977;SDS011;56314;48.088;11.642;2024-01-15T03:33:56;15.10;;;6.95;;
26977;SDS011;56314;48.088;11.642;2024-01-15T03:36:21;14.45;;;6.47;;
26977;SDS011;56314;48.088;11.642;2024-01-15T03:38:47;12.45;;;6.10;;
26977;SDS011;56314;48.088;11.642;2024-01-15T03:41:12;14.30;;;6.28;;
26977;SDS011;56314;48.088;11.642;2024-01-15T03:43:38;15.20;;;6.43;;
26977;SDS011;56314;48.088;11.642;2024-01-15T03:46:04;10.75;;;5.00;;
26977;SDS011;56314;48.088;11.642;2024-01-15T03:48:29;11.00;;;5.80;;
26977;SDS011;56314;48.088;11.642;2024-01-15T03:50:55;13.85;;;5.97;;
26977;SDS011;56314;48.088;11.642;2024-01-15T03:53:20;12.32;;;5.82;;
26977;SDS011;56314;48.088;11.642;2024-01-15T03:55:46;12.98;;;6.00;;
26977;SDS011;56314;48.088;11.642;2024-01-15T03:58:11;12.35;;;5.55;;
26977;SDS011;56314;48.088;11.642;2024-01-15T04:00:37;12.85;;;5.65;;
26977;SDS011;56314;48.088;11.642;2024-01-15T04:03:02;13.50;;;6.10;;
26977;SDS011;56314;48.088;11.642;2024-01-15T04:05:27;13.00;;;5.93;;
26977;SDS011;56314;48.088;11.642;2024-01-15T04:07:53;14.13;;;5.55;;
26977;SDS011;56314;48.088;11.642;2024-01-15T04:10:18;11.10;;;5.57;;
26977;SDS011;56314;48.088;11.642;2024-01-15T04:12:43;17.17;;;6.50;;
26977;SDS011;56314;48.088;11.642;2024-01-15T04:15:11;10.15;;;5.28;;
26977;SDS011;56314;48.088;11.642;2024-01-15T04:17:37;14.90;;;5.72;;
26977;SDS011;56314;48.088;11.642;2024-01-15T04:20:03;13.77;;;5.50;;
26977;SDS011;56314;48.088;11.642;2024-01-15T04:22:28;12.73;;;5.72;;
26977;SDS011;56314;48.088;11.642;2024-01-15T04:24:54;12.82;;;5.90;;
26977;SDS011;56314;48.088;11.642;2024-01-15T04:27:19;12.00;;;5.65;;
26977;SDS011;56314;48.088;11.642;2024-01-15T04:29:44;11.95;;;5.38;;
26977;SDS011;56314;48.088;11.642;2024-01-15T04:32:10;10.77;;;5.32;;
26977;SDS011;56314;48.088;11.642;2024-01-15T04:34:35;9.60;;;5.00;;
26977;SDS011;56314;48.088;11.642;2024-01-15T04:37:01;12.10;;;5.20;;
26977;SDS011;56314;48.088;11.642;2024-01-15T04:39:26;11.77;;;5.55;;
26977;SDS011;56314;48.088;11.642;2024-01-15T04:41:52;10.07;;;5.20;;
26977;SDS011;56314;48.088;11.642;2024-01-15T04:44:18;10.30;;;4.90;;
26977;SDS011;56314;48.088;11.642;2024-01-15T04:46:43;9.43;;;4.90;;
26977;SDS011;56314;48.088;11.642;2024-01-15T04:49:09;9.02;;;4.40;;
26977;SDS011;56314;48.088;11.642;2024-01-15T04:51:35;9.60;;;4.85;;
26977;SDS011;56314;48.088;11.642;2024-01-15T04:54:00;9.25;;;4.30;;
26977;SDS011;56314;48.088;11.642;2024-01-15T04:56:26;11.90;;;5.05;;
26977;SDS011;56314;48.088;11.642;2024-01-15T04:58:51;13.27;;;5.43;;
26977;SDS011;56314;48.088;11.642;2024-01-15T05:01:16;11.77;;;5.40;;
26977;SDS011;56314;48.088;11.642;2024-01-15T05:03:42;11.25;;;4.93;;
26977;SDS011;56314;48.088;11.642;2024-01-15T05:06:08;10.68;;;5.30;;
26977;SDS011;56314;48.088;11.642;2024-01-15T05:08:33;10.63;;;4.75;;
26977;SDS011;56314;48.088;11.642;2024-01-15T05:10:58;11.02;;;4.70;;
26977;SDS011;56314;48.088;11.642;2024-01-15T05:13:24;11.00;;;5.10;;
26977;SDS011;56314;48.088;11.642;2024-01-15T05:15:49;9.90;;;4.55;;
26977;SDS011;56314;48.088;11.642;2024-01-15T05:18:15;7.53;;;4.03;;
26977;SDS011;56314;48.088;11.642;2024-01-15T05:20:41;7.82;;;4.57;;
26977;SDS011;56314;48.088;11.642;2024-01-15T05:23:07;6.82;;;3.65;;
26977;SDS011;56314;48.088;11.642;2024-01-15T05:25:32;9.27;;;5.10;;
26977;SDS011;56314;48.088;11.642;2024-01-15T05:27:58;9.55;;;4.03;;
26977;SDS011;56314;48.088;11.642;2024-01-15T05:30:23;8.18;;;4.93;;
26977;SDS011;56314;48.088;11.642;2024-01-15T05:32:48;11.07;;;4.22;;
26977;SDS011;56314;48.088;11.642;2024-01-15T05:35:14;9.32;;;4.35;;
26977;SDS011;56314;48.088;11.642;2024-01-15T05:37:43;11.77;;;4.63;;
26977;SDS011;56314;48.088;11.642;2024-01-15T05:40:09;11.27;;;4.78;;
26977;SDS011;56314;48.088;11.642;2024-01-15T05:42:35;7.75;;;4.22;;
26977;SDS011;56314;48.088;11.642;2024-01-15T05:45:01;11.77;;;4.75;;
26977;SDS011;56314;48.088;11.642;2024-01-15T05:47:29;8.23;;;4.22;;
26977;SDS011;56314;48.088;11.642;2024-01-15T05:49:54;8.63;;;4.20;;
26977;SDS011;56314;48.088;11.642;2024-01-15T05:52:20;9.43;;;4.43;;
26977;SDS011;56314;48.088;11.642;2024-01-15T05:54:46;9.20;;;4.90;;
26977;SDS011;56314;48.088;11.642;2024-01-15T05:57:12;10.70;;;4.30;;
26977;SDS011;56314;48.088;11.642;2024-01-15T05:59:38;9.85;;;4.05;;
26977;SDS011;56314;48.088;11.642;2024-01-15T06:02:03;9.75;;;4.95;;
26977;SDS011;56314;48.088;11.642;2024-01-15T06:04:38;9.75;;;4.97;;
26977;SDS011;56314;48.088;11.642;2024-01-15T06:07:06;8.35;;;3.65;;
26977;SDS011;56314;48.088;11.642;2024-01-15T06:09:31;8.43;;;4.55;;
26977;SDS011;56314;48.088;11.642;2024-01-15T06:11:56;9.07;;;4.82;;
26977;SDS011;56314;48.088;11.642;2024-01-15T06:14:22;10.48;;;4.47;;
26977;SDS011;56314;48.088;11.642;2024-01-15T06:16:47;9.70;;;4.55;;
26977;SDS011;56314;48.088;11.642;2024-01-15T06:19:12;6.95;;;3.65;;
26977;SDS011;56314;48.088;11.642;2024-01-15T06:21:38;11.50;;;4.72;;
26977;SDS011;56314;48.088;11.642;2024-01-15T06:24:03;10.95;;;4.95;;
26977;SDS011;56314;48.088;11.642;2024-01-15T06:26:29;10.32;;;4.10;;
26977;SDS011;56314;48.088;11.642;2024-01-15T06:28:54;9.55;;;4.78;;
26977;SDS011;56314;48.088;11.642;2024-01-15T06:31:20;11.88;;;4.80;;
26977;SDS011;56314;48.088;11.642;2024-01-15T06:33:46;11.48;;;4.85;;
26977;SDS011;56314;48.088;11.642;2024-01-15T06:36:13;10.60;;;4.60;;
26977;SDS011;56314;48.088;11.642;2024-01-15T06:38:38;10.60;;;4.63;;
26977;SDS011;56314;48.088;11.642;2024-01-15T06:41:04;10.05;;;4.82;;
26977;SDS011;56314;48.088;11.642;2024-01-15T06:43:29;11.90;;;5.05;;
26977;SDS011;56314;48.088;11.642;2024-01-15T06:45:55;12.23;;;4.65;;
26977;SDS011;56314;48.088;11.642;2024-01-15T06:48:20;9.02;;;4.50;;
26977;SDS011;56314;48.088;11.642;2024-01-15T06:50:45;9.07;;;4.28;;
26977;SDS011;56314;48.088;11.642;2024-01-15T06:53:11;9.63;;;4.47;;
26977;SDS011;56314;48.088;11.642;2024-01-15T06:55:37;10.20;;;4.40;;
26977;SDS011;56314;48.088;11.642;2024-01-15T06:58:03;13.13;;;5.13;;
26977;SDS011;56314;48.088;11.642;2024-01-15T07:00:29;9.73;;;4.88;;
26977;SDS011;56314;48.088;11.642;2024-01-15T07:02:54;14.75;;;5.72;;
26977;SDS011;56314;48.088;11.642;2024-01-15T07:05:20;12.20;;;5.45;;
26977;SDS011;56314;48.088;11.642;2024-01-15T07:07:46;9.95;;;4.63;;
26977;SDS011;56314;48.088;11.642;2024-01-15T07:10:12;10.85;;;5.28;;
26977;SDS011;56314;48.088;11.642;2024-01-15T07:12:38;10.32;;;4.82;;
26977;SDS011;56314;48.088;11.642;2024-01-15T07:15:03;12.02;;;4.13;;
26977;SDS011;56314;48.088;11.642;2024-01-15T07:17:31;11.35;;;4.88;;
26977;SDS011;56314;48.088;11.642;2024-01-15T07:19:56;8.93;;;4.30;;
26977;SDS011;56314;48.088;11.642;2024-01-15T07:22:22;11.73;;;5.25;;
26977;SDS011;56314;48.088;11.642;2024-01-15T07:24:47;13.15;;;4.85;;
26977;SDS011;56314;48.088;11.642;2024-01-15T07:27:12;9.52;;;4.70;;
26977;SDS011;56314;48.088;11.642;2024-01-15T07:29:38;10.00;;;4.68;;
26977;SDS011;56314;48.088;11.642;2024-01-15T07:32:03;7.65;;;4.60;;
26977;SDS011;56314;48.088;11.642;2024-01-15T07:34:29;11.07;;;4.80;;
26977;SDS011;56314;48.088;11.642;2024-01-15T07:36:55;8.40;;;4.47;;
26977;SDS011;56314;48.088;11.642;2024-01-15T07:39:20;8.15;;;4.82;;
26977;SDS011;56314;48.088;11.642;2024-01-15T07:41:48;9.48;;;5.13;;
26977;SDS011;56314;48.088;11.642;2024-01-15T07:44:13;10.40;;;5.25;;
26977;SDS011;56314;48.088;11.642;2024-01-15T07:46:39;9.75;;;5.32;;
26977;SDS011;56314;48.088;11.642;2024-01-15T07:49:06;9.70;;;4.88;;
26977;SDS011;56314;48.088;11.642;2024-01-15T07:51:31;9.55;;;4.82;;
26977;SDS011;56314;48.088;11.642;2024-01-15T07:53:57;8.82;;;4.60;;
26977;SDS011;56314;48.088;11.642;2024-01-15T07:56:22;7.32;;;4.30;;
26977;SDS011;56314;48.088;11.642;2024-01-15T07:58:47;12.65;;;5.07;;
26977;SDS011;56314;48.088;11.642;2024-01-15T08:01:13;10.23;;;4.45;;
26977;SDS011;56314;48.088;11.642;2024-01-15T08:03:38;10.48;;;4.65;;
26977;SDS011;56314;48.088;11.642;2024-01-15T08:06:04;12.43;;;5.53;;
26977;SDS011;56314;48.088;11.642;2024-01-15T08:08:30;9.85;;;5.07;;
26977;SDS011;56314;48.088;11.642;2024-01-15T08:10:56;13.10;;;4.88;;
26977;SDS011;56314;48.088;11.642;2024-01-15T08:13:21;12.50;;;5.28;;
26977;SDS011;56314;48.088;11.642;2024-01-15T08:15:46;8.85;;;4.20;;
26977;SDS011;56314;48.088;11.642;2024-01-15T08:18:12;10.80;;;4.97;;
26977;SDS011;56314;48.088;11.642;2024-01-15T08:20:37;9.80;;;4.75;;
26977;SDS011;56314;48.088;11.642;2024-01-15T08:23:03;10.30;;;4.68;;
26977;SDS011;56314;48.088;11.642;2024-01-15T08:25:28;13.90;;;4.97;;
26977;SDS011;56314;48.088;11.642;2024-01-15T08:27:55;8.23;;;4.60;;
26977;SDS011;56314;48.088;11.642;2024-01-15T08:30:21;12.38;;;5.35;;
26977;SDS011;56314;48.088;11.642;2024-01-15T08:32:49;9.38;;;5.07;;
26977;SDS011;56314;48.088;11.642;2024-01-15T08:35:15;10.82;;;4.38;;
26977;SDS011;56314;48.088;11.642;2024-01-15T08:37:40;11.40;;;5.07;;
26977;SDS011;56314;48.088;11.642;2024-01-15T08:40:06;10.50;;;5.25;;
26977;SDS011;56314;48.088;11.642;2024-01-15T08:42:31;11.02;;;4.82;;
26977;SDS011;56314;48.088;11.642;2024-01-15T08:44:57;10.02;;;5.03;;
26977;SDS011;56314;48.088;11.642;2024-01-15T08:47:22;9.30;;;4.68;;
26977;SDS011;56314;48.088;11.642;2024-01-15T08:49:47;10.98;;;4.72;;
26977;SDS011;56314;48.088;11.642;2024-01-15T08:52:13;10.48;;;4.68;;
26977;SDS011;56314;48.088;11.642;2024-01-15T08:54:39;12.85;;;5.20;;
26977;SDS011;56314;48.088;11.642;2024-01-15T08:57:04;8.95;;;4.68;;
26977;SDS011;56314;48.088;11.642;2024-01-15T08:59:29;12.93;;;5.45;;
26977;SDS011;56314;48.088;11.642;2024-01-15T09:01:55;10.73;;;5.38;;
26977;SDS011;56314;48.088;11.642;2024-01-15T09:04:23;12.70;;;5.70;;
26977;SDS011;56314;48.088;11.642;2024-01-15T09:06:48;9.55;;;4.95;;
26977;SDS011;56314;48.088;11.642;2024-01-15T09:09:14;11.88;;;5.22;;
26977;SDS011;56314;48.088;11.642;2024-01-15T09:11:40;11.82;;;5.70;;
26977;SDS011;56314;48.088;11.642;2024-01-15T09:14:06;12.13;;;5.50;;
26977;SDS011;56314;48.088;11.642;2024-01-15T09:16:33;10.50;;;5.30;;
26977;SDS011;56314;48.088;11.642;2024-01-15T09:18:58;11.93;;;5.40;;
26977;SDS011;56314;48.088;11.642;2024-01-15T09:21:23;10.52;;;5.00;;
26977;SDS011;56314;48.088;11.642;2024-01-15T09:23:51;10.90;;;5.10;;
26977;SDS011;56314;48.088;11.642;2024-01-15T09:26:17;12.23;;;5.25;;
26977;SDS011;56314;48.088;11.642;2024-01-15T09:28:42;10.13;;;4.57;;
26977;SDS011;56314;48.088;11.642;2024-01-15T09:31:08;11.13;;;5.28;;
26977;SDS011;56314;48.088;11.642;2024-01-15T09:33:33;9.98;;;5.47;;
26977;SDS011;56314;48.088;11.642;2024-01-15T09:36:02;12.32;;;5.82;;
26977;SDS011;56314;48.088;11.642;2024-01-15T09:38:30;12.80;;;5.07;;
26977;SDS011;56314;48.088;11.642;2024-01-15T09:40:56;8.38;;;4.60;;
26977;SDS011;56314;48.088;11.642;2024-01-15T09:43:22;11.30;;;4.75;;
26977;SDS011;56314;48.088;11.642;2024-01-15T09:45:48;8.75;;;4.13;;
26977;SDS011;56314;48.088;11.642;2024-01-15T09:48:15;9.70;;;4.85;;
26977;SDS011;56314;48.088;11.642;2024-01-15T09:50:40;7.28;;;3.83;;
26977;SDS011;56314;48.088;11.642;2024-01-15T09:53:05;7.68;;;4.47;;
26977;SDS011;56314;48.088;11.642;2024-01-15T09:55:31;8.07;;;4.43;;
26977;SDS011;56314;48.088;11.642;2024-01-15T09:58:00;9.73;;;4.30;;
26977;SDS011;56314;48.088;11.642;2024-01-15T10:00:27;9.20;;;4.28;;
26977;SDS011;56314;48.088;11.642;2024-01-15T10:02:53;7.47;;;4.93;;
26977;SDS011;56314;48.088;11.642;2024-01-15T10:05:18;8.98;;;3.83;;
26977;SDS011;56314;48.088;11.642;2024-01-15T10:07:43;6.70;;;3.67;;
26977;SDS011;56314;48.088;11.642;2024-01-15T10:10:11;9.75;;;4.28;;
26977;SDS011;56314;48.088;11.642;2024-01-15T10:12:36;11.70;;;4.70;;
26977;SDS011;56314;48.088;11.642;2024-01-15T10:15:04;9.65;;;4.05;;
26977;SDS011;56314;48.088;11.642;2024-01-15T10:17:30;10.25;;;3.67;;
26977;SDS011;56314;48.088;11.642;2024-01-15T10:19:56;7.82;;;4.13;;
26977;SDS011;56314;48.088;11.642;2024-01-15T10:22:22;7.35;;;3.65;;
26977;SDS011;56314;48.088;11.642;2024-01-15T10:24:48;7.10;;;3.60;;
26977;SDS011;56314;48.088;11.642;2024-01-15T10:27:14;6.63;;;3.30;;
26977;SDS011;56314;48.088;11.642;2024-01-15T10:29:40;9.52;;;4.10;;
26977;SDS011;56314;48.088;11.642;2024-01-15T10:32:07;7.30;;;3.53;;
26977;SDS011;56314;48.088;11.642;2024-01-15T10:34:33;8.05;;;3.65;;
26977;SDS011;56314;48.088;11.642;2024-01-15T10:37:03;5.43;;;3.85;;
26977;SDS011;56314;48.088;11.642;2024-01-15T10:39:28;6.65;;;2.95;;
26977;SDS011;56314;48.088;11.642;2024-01-15T10:41:55;8.23;;;3.42;;
26977;SDS011;56314;48.088;11.642;2024-01-15T10:44:20;7.55;;;3.33;;
26977;SDS011;56314;48.088;11.642;2024-01-15T10:46:46;7.30;;;2.90;;
26977;SDS011;56314;48.088;11.642;2024-01-15T10:49:12;5.47;;;2.75;;
26977;SDS011;56314;48.088;11.642;2024-01-15T10:51:37;3.20;;;2.35;;
26977;SDS011;56314;48.088;11.642;2024-01-15T10:54:03;6.93;;;2.63;;
26977;SDS011;56314;48.088;11.642;2024-01-15T10:56:30;5.30;;;2.42;;
26977;SDS011;56314;48.088;11.642;2024-01-15T10:58:58;5.25;;;2.58;;
26977;SDS011;56314;48.088;11.642;2024-01-15T11:01:24;8.43;;;3.28;;
26977;SDS011;56314;48.088;11.642;2024-01-15T11:03:50;7.20;;;2.92;;
26977;SDS011;56314;48.088;11.642;2024-01-15T11:06:18;5.18;;;2.67;;
26977;SDS011;56314;48.088;11.642;2024-01-15T11:08:50;6.20;;;2.60;;
26977;SDS011;56314;48.088;11.642;2024-01-15T11:11:16;6.85;;;3.17;;
26977;SDS011;56314;48.088;11.642;2024-01-15T11:13:42;5.78;;;3.00;;
26977;SDS011;56314;48.088;11.642;2024-01-15T11:16:11;6.03;;;3.38;;
26977;SDS011;56314;48.088;11.642;2024-01-15T11:18:38;5.75;;;2.63;;
26977;SDS011;56314;48.088;11.642;2024-01-15T11:29:01;6.68;;;3.08;;
26977;SDS011;56314;48.088;11.642;2024-01-15T11:31:29;4.07;;;2.20;;
26977;SDS011;56314;48.088;11.642;2024-01-15T11:33:55;4.03;;;2.20;;
26977;SDS011;56314;48.088;11.642;2024-01-15T11:36:21;3.25;;;2.05;;
26977;SDS011;56314;48.088;11.642;2024-01-15T11:41:56;2.72;;;1.85;;
26977;SDS011;56314;48.088;11.642;2024-01-15T11:44:23;3.17;;;1.65;;
26977;SDS011;56314;48.088;11.642;2024-01-15T11:47:10;7.40;;;1.90;;
26977;SDS011;56314;48.088;11.642;2024-01-15T11:52:18;3.15;;;1.88;;
26977;SDS011;56314;48.088;11.642;2024-01-15T11:54:50;4.65;;;2.10;;
26977;SDS011;56314;48.088;11.642;2024-01-15T11:57:48;3.03;;;1.67;;
26977;SDS011;56314;48.088;11.642;2024-01-15T12:00:16;2.95;;;2.03;;
26977;SDS011;56314;48.088;11.642;2024-01-15T12:02:42;5.65;;;2.42;;
26977;SDS011;56314;48.088;11.642;2024-01-15T12:05:09;4.88;;;2.25;;
26977;SDS011;56314;48.088;11.642;2024-01-15T12:07:37;3.50;;;2.00;;
26977;SDS011;56314;48.088;11.642;2024-01-15T12:10:16;4.18;;;1.95;;
26977;SDS011;56314;48.088;11.642;2024-01-15T12:13:05;3.58;;;1.88;;
26977;SDS011;56314;48.088;11.642;2024-01-15T12:15:35;6.82;;;2.25;;
26977;SDS011;56314;48.088;11.642;2024-01-15T12:18:02;2.67;;;1.92;;
26977;SDS011;56314;48.088;11.642;2024-01-15T12:20:28;5.85;;;2.05;;
26977;SDS011;56314;48.088;11.642;2024-01-15T12:22:54;3.90;;;2.00;;
26977;SDS011;56314;48.088;11.642;2024-01-15T12:25:20;5.63;;;2.17;;
26977;SDS011;56314;48.088;11.642;2024-01-15T12:27:47;3.38;;;1.90;;
26977;SDS011;56314;48.088;11.642;2024-01-15T12:30:15;3.17;;;2.05;;
26977;SDS011;56314;48.088;11.642;2024-01-15T12:32:41;7.38;;;2.13;;
26977;SDS011;56314;48.088;11.642;2024-01-15T12:35:07;2.92;;;1.70;;
26977;SDS011;56314;48.088;11.642;2024-01-15T12:37:34;2.53;;;1.85;;
26977;SDS011;56314;48.088;11.642;2024-01-15T12:40:11;4.50;;;1.60;;
26977;SDS011;56314;48.088;11.642;2024-01-15T12:42:37;3.92;;;1.63;;
26977;SDS011;56314;48.088;11.642;2024-01-15T12:45:07;4.18;;;1.85;;
26977;SDS011;56314;48.088;11.642;2024-01-15T12:47:34;3.72;;;2.00;;
26977;SDS011;56314;48.088;11.642;2024-01-15T12:49:59;2.75;;;1.75;;
26977;SDS011;56314;48.088;11.642;2024-01-15T12:52:28;3.90;;;2.13;;
26977;SDS011;56314;48.088;11.642;2024-01-15T12:54:54;4.47;;;1.80;;
26977;SDS011;56314;48.088;11.642;2024-01-15T12:57:19;2.90;;;1.85;;
26977;SDS011;56314;48.088;11.642;2024-01-15T12:59:44;4.32;;;2.35;;
26977;SDS011;56314;48.088;11.642;2024-01-15T13:02:11;5.53;;;2.28;;
26977;SDS011;56314;48.088;11.642;2024-01-15T13:04:37;4.97;;;2.38;;
26977;SDS011;56314;48.088;11.642;2024-01-15T13:07:03;4.05;;;2.38;;
26977;SDS011;56314;48.088;11.642;2024-01-15T13:09:29;5.13;;;2.65;;
26977;SDS011;56314;48.088;11.642;2024-01-15T13:11:55;5.10;;;2.55;;
26977;SDS011;56314;48.088;11.642;2024-01-15T13:14:20;4.60;;;2.35;;
26977;SDS011;56314;48.088;11.642;2024-01-15T13:16:46;4.03;;;2.47;;
26977;SDS011;56314;48.088;11.642;2024-01-15T13:19:11;4.78;;;2.50;;
26977;SDS011;56314;48.088;11.642;2024-01-15T13:21:38;3.60;;;2.53;;
26977;SDS011;56314;48.088;11.642;2024-01-15T13:24:06;4.18;;;2.42;;
26977;SDS011;56314;48.088;11.642;2024-01-15T13:26:32;7.53;;;2.45;;
26977;SDS011;56314;48.088;11.642;2024-01-15T13:28:59;4.55;;;2.65;;
26977;SDS011;56314;48.088;11.642;2024-01-15T13:31:28;5.32;;;2.72;;
26977;SDS011;56314;48.088;11.642;2024-01-15T13:33:54;3.60;;;2.10;;
26977;SDS011;56314;48.088;11.642;2024-01-15T13:36:23;6.88;;;2.55;;
26977;SDS011;56314;48.088;11.642;2024-01-15T13:38:49;3.95;;;2.33;;
26977;SDS011;56314;48.088;11.642;2024-01-15T13:41:15;4.43;;;2.22;;
26977;SDS011;56314;48.088;11.642;2024-01-15T13:43:41;4.75;;;2.67;;
26977;SDS011;56314;48.088;11.642;2024-01-15T13:46:06;5.07;;;2.25;;
26977;SDS011;56314;48.088;11.642;2024-01-15T13:48:32;3.72;;;2.40;;
26977;SDS011;56314;48.088;11.642;2024-01-15T13:50:58;3.80;;;2.13;;
26977;SDS011;56314;48.088;11.642;2024-01-15T13:53:24;4.20;;;2.78;;
26977;SDS011;56314;48.088;11.642;2024-01-15T13:55:49;4.15;;;2.50;;
26977;SDS011;56314;48.088;11.642;2024-01-15T13:58:15;4.72;;;2.45;;
26977;SDS011;56314;48.088;11.642;2024-01-15T14:00:41;4.00;;;2.50;;
26977;SDS011;56314;48.088;11.642;2024-01-15T14:03:06;5.68;;;2.45;;
26977;SDS011;56314;48.088;11.642;2024-01-15T14:05:31;6.93;;;2.90;;
26977;SDS011;56314;48.088;11.642;2024-01-15T14:07:57;5.25;;;2.58;;
26977;SDS011;56314;48.088;11.642;2024-01-15T14:10:23;6.15;;;2.92;;
26977;SDS011;56314;48.088;11.642;2024-01-15T14:12:49;5.15;;;2.72;;
26977;SDS011;56314;48.088;11.642;2024-01-15T14:15:14;4.68;;;2.60;;
26977;SDS011;56314;48.088;11.642;2024-01-15T14:17:39;5.60;;;3.05;;
26977;SDS011;56314;48.088;11.642;2024-01-15T14:20:05;5.70;;;2.40;;
26977;SDS011;56314;48.088;11.642;2024-01-15T14:22:31;5.15;;;3.17;;
26977;SDS011;56314;48.088;11.642;2024-01-15T14:24:56;3.53;;;2.45;;
26977;SDS011;56314;48.088;11.642;2024-01-15T14:27:22;5.00;;;2.55;;
26977;SDS011;56314;48.088;11.642;2024-01-15T14:29:47;5.03;;;2.70;;
26977;SDS011;56314;48.088;11.642;2024-01-15T14:32:12;3.58;;;2.65;;
26977;SDS011;56314;48.088;11.642;2024-01-15T14:34:38;8.18;;;3.60;;